createdAt,value
2022-12-14T00:03:03.214Z,1.92
2022-12-14T00:08:06.758Z,1.80
2022-12-14T00:13:13.004Z,1.88
2022-12-14T00:18:20.842Z,1.58
2022-12-14T00:23:25.278Z,1.58
2022-12-14T00:28:28.681Z,1.40
2022-12-14T00:33:31.951Z,1.77
2022-12-14T00:38:35.534Z,1.40
2022-12-14T00:43:38.680Z,1.02
2022-12-14T00:48:42.805Z,1.60
2022-12-14T00:53:45.758Z,1.50
2022-12-14T00:58:52.498Z,1.40
2022-12-14T01:04:15.380Z,1.23
2022-12-14T01:09:19.958Z,1.55
2022-12-14T01:14:23.440Z,1.55
2022-12-14T01:19:26.351Z,1.77
2022-12-14T01:24:29.643Z,1.63
2022-12-14T01:29:32.631Z,2.25
2022-12-14T01:34:35.496Z,1.70
2022-12-14T01:39:38.370Z,1.23
2022-12-14T01:44:41.185Z,1.25
2022-12-14T01:50:10.259Z,2.10
2022-12-14T01:55:33.711Z,1.23
2022-12-14T02:00:37.506Z,1.90
2022-12-14T02:05:46.875Z,2.20
2022-12-14T02:10:52.289Z,0.75
2022-12-14T02:15:55.760Z,1.25
2022-12-14T02:21:24.314Z,1.40
2022-12-14T02:26:38.944Z,1.55
2022-12-14T02:31:52.005Z,1.02
2022-12-14T02:37:11.643Z,1.60
2022-12-14T02:42:20.163Z,1.33
2022-12-14T02:47:51.452Z,0.93
2022-12-14T02:53:31.559Z,0.50
2022-12-14T02:58:41.624Z,1.20
2022-12-14T03:03:44.843Z,1.10
2022-12-14T03:08:48.025Z,1.15
2022-12-14T03:13:54.083Z,0.90
2022-12-14T03:19:02.708Z,1.33
2022-12-14T03:24:12.786Z,1.33
2022-12-14T03:29:47.950Z,1.42
2022-12-14T03:35:33.037Z,1.17
2022-12-14T03:41:02.766Z,1.15
2022-12-14T03:46:16.039Z,1.35
2022-12-14T03:51:35.643Z,1.70
2022-12-14T03:56:51.305Z,1.20
2022-12-14T04:02:05.065Z,1.15
2022-12-14T04:07:18.234Z,1.02
2022-12-14T04:12:51.559Z,1.10
2022-12-14T04:18:20.523Z,1.27
2022-12-14T04:23:50.054Z,1.20
2022-12-14T04:29:28.565Z,1.30
2022-12-14T04:34:34.486Z,0.65
2022-12-14T04:39:47.759Z,0.63
2022-12-14T04:44:54.814Z,1.65
2022-12-14T04:50:10.786Z,1.92
2022-12-14T04:55:16.360Z,1.70
2022-12-14T05:00:19.608Z,1.08
2022-12-14T05:05:42.291Z,1.45
2022-12-14T05:11:00.893Z,1.75
2022-12-14T05:16:23.340Z,1.58
2022-12-14T05:21:44.574Z,2.05
2022-12-14T05:26:48.001Z,2.10
2022-12-14T05:31:51.680Z,2.20
2022-12-14T05:36:54.877Z,2.00
2022-12-14T05:41:57.771Z,2.25
2022-12-14T05:47:00.666Z,1.40
2022-12-14T05:52:03.922Z,2.25
2022-12-14T05:57:07.249Z,1.40
2022-12-14T06:02:10.328Z,2.10
2022-12-14T06:07:13.411Z,2.28
2022-12-14T06:12:17.491Z,1.70
2022-12-14T06:17:20.471Z,2.17
2022-12-14T06:22:24.500Z,2.17
2022-12-14T06:27:27.542Z,2.35
2022-12-14T06:32:37.270Z,2.97
2022-12-14T06:37:40.859Z,0.82
2022-12-14T06:42:43.784Z,2.53
2022-12-14T06:47:46.678Z,1.52
2022-12-14T06:52:52.304Z,0.85
2022-12-14T06:57:56.093Z,2.65
2022-12-14T07:02:59.154Z,2.17
2022-12-14T07:08:02.780Z,2.10
2022-12-14T07:13:05.721Z,1.20
2022-12-14T07:18:08.730Z,1.90
2022-12-14T07:23:14.268Z,1.65
2022-12-14T07:28:18.937Z,2.28
2022-12-14T07:33:22.109Z,1.65
2022-12-14T07:38:25.131Z,2.10
2022-12-14T07:43:29.117Z,2.42
2022-12-14T07:48:33.180Z,1.80
2022-12-14T07:53:38.351Z,2.15
2022-12-14T07:58:42.026Z,2.38
2022-12-14T08:03:48.177Z,2.00
2022-12-14T08:08:52.436Z,2.33
2022-12-14T08:14:00.597Z,1.25
2022-12-14T08:19:04.198Z,2.45
2022-12-14T08:24:07.324Z,2.75
2022-12-14T08:29:12.994Z,1.73
2022-12-14T08:34:22.931Z,2.97
2022-12-14T08:39:25.977Z,1.60
2022-12-14T08:44:28.978Z,1.58
2022-12-14T08:49:32.639Z,1.40
2022-12-14T08:54:35.851Z,2.42
2022-12-14T09:00:00.811Z,2.50
2022-12-14T09:05:02.702Z,2.60
2022-12-14T09:10:08.207Z,2.85
2022-12-14T09:15:12.182Z,2.92
2022-12-14T09:20:15.104Z,2.60
2022-12-14T09:25:18.185Z,2.65
2022-12-14T09:30:26.820Z,2.70
2022-12-14T09:35:30.128Z,2.92
2022-12-14T09:40:34.270Z,2.30
2022-12-14T09:45:50.913Z,2.70
2022-12-14T09:50:54.579Z,2.38
2022-12-14T09:55:59.278Z,2.33
2022-12-14T10:01:23.379Z,2.10
2022-12-14T10:06:43.570Z,1.48
2022-12-14T10:12:00.747Z,2.50
2022-12-14T10:17:22.593Z,2.75
2022-12-14T10:22:46.825Z,1.98
2022-12-14T10:28:12.765Z,2.38
2022-12-14T10:33:32.379Z,2.60
2022-12-14T10:38:41.746Z,3.00
2022-12-14T10:44:11.973Z,2.33
2022-12-14T10:49:20.565Z,2.92
2022-12-14T10:54:39.260Z,2.45
2022-12-14T10:59:55.606Z,3.05
2022-12-14T11:05:35.814Z,3.03
2022-12-14T11:10:42.308Z,2.67
2022-12-14T11:15:48.998Z,3.13
2022-12-14T11:20:53.770Z,2.90
2022-12-14T11:26:03.739Z,3.33
2022-12-14T11:31:31.290Z,2.90
2022-12-14T11:36:42.438Z,2.85
2022-12-14T11:41:48.805Z,3.05
2022-12-14T11:47:01.505Z,3.65
2022-12-14T11:52:13.640Z,2.70
2022-12-14T11:57:25.069Z,3.05
2022-12-14T12:02:38.181Z,3.13
2022-12-14T12:08:03.087Z,2.03
2022-12-14T12:13:17.468Z,2.10
2022-12-14T12:18:30.020Z,2.60
2022-12-14T12:23:41.643Z,3.20
2022-12-14T12:28:53.554Z,3.10
2022-12-14T12:34:02.187Z,3.83
2022-12-14T12:39:16.507Z,1.90
2022-12-14T12:44:23.136Z,3.00
2022-12-14T12:49:26.239Z,3.28
2022-12-14T12:54:39.831Z,3.78
2022-12-14T12:59:55.533Z,4.22
2022-12-14T13:05:16.593Z,4.43
2022-12-14T13:10:32.946Z,3.97
2022-12-14T13:15:45.431Z,3.72
2022-12-14T13:20:49.835Z,3.53
2022-12-14T13:25:52.733Z,4.32
2022-12-14T13:31:30.936Z,3.83
2022-12-14T13:37:18.723Z,4.13
2022-12-14T13:43:09.209Z,3.63
2022-12-14T13:48:37.969Z,4.53
2022-12-14T13:53:55.133Z,4.78
2022-12-14T13:59:00.236Z,4.82
2022-12-14T14:04:13.590Z,5.18
2022-12-14T14:09:31.556Z,5.63
2022-12-14T14:15:11.622Z,5.80
2022-12-14T14:20:44.706Z,5.43
2022-12-14T14:25:54.642Z,7.28
2022-12-14T14:30:58.879Z,6.85
2022-12-14T14:36:33.588Z,4.70
2022-12-14T14:41:40.551Z,4.55
2022-12-14T14:46:48.615Z,5.50
2022-12-14T14:51:51.674Z,5.30
2022-12-14T14:56:54.675Z,5.25
2022-12-14T15:02:04.029Z,6.03
2022-12-14T15:07:11.764Z,4.65
2022-12-14T15:17:36.169Z,4.75
2022-12-14T15:22:43.499Z,4.60
2022-12-14T15:27:48.012Z,5.18
2022-12-14T15:33:04.055Z,6.70
2022-12-14T15:38:18.975Z,5.95
2022-12-14T15:43:23.887Z,7.35
2022-12-14T15:48:31.322Z,6.95
2022-12-14T15:53:43.159Z,7.78
2022-12-14T15:58:56.972Z,7.78
2022-12-14T16:04:05.226Z,7.93
2022-12-14T16:09:11.953Z,8.50
2022-12-14T16:14:31.168Z,7.97
2022-12-14T16:19:57.513Z,9.27
2022-12-14T16:25:08.063Z,9.40
2022-12-14T16:30:33.035Z,8.30
2022-12-14T16:35:39.287Z,9.15
2022-12-14T16:40:53.490Z,10.68
2022-12-14T16:51:28.594Z,9.65
2022-12-14T16:56:45.747Z,10.38
2022-12-14T17:01:50.383Z,9.98
2022-12-14T17:06:56.170Z,11.30
2022-12-14T17:12:02.288Z,9.82
2022-12-14T17:17:06.551Z,10.60
2022-12-14T17:22:22.354Z,12.88
2022-12-14T17:27:28.352Z,11.32
2022-12-14T17:32:31.683Z,10.68
2022-12-14T17:37:36.749Z,10.38
2022-12-14T17:42:41.250Z,11.02
2022-12-14T17:47:44.332Z,10.70
2022-12-14T17:52:48.031Z,11.82
2022-12-14T17:57:52.286Z,10.23
2022-12-14T18:02:55.468Z,11.02
2022-12-14T18:07:58.972Z,11.57
2022-12-14T18:13:02.694Z,11.10
2022-12-14T18:18:06.789Z,12.35
2022-12-14T18:23:14.377Z,10.77
2022-12-14T18:28:17.652Z,11.27
2022-12-14T18:33:23.333Z,9.75
2022-12-14T18:38:26.651Z,9.45
2022-12-14T18:43:30.985Z,8.98
2022-12-14T18:48:36.276Z,8.70
2022-12-14T18:53:39.530Z,9.00
2022-12-14T18:58:45.555Z,11.95
2022-12-14T19:03:49.359Z,10.10
2022-12-14T19:08:52.487Z,10.27
2022-12-14T19:13:56.698Z,9.77
2022-12-14T19:19:01.007Z,10.57
2022-12-14T19:24:04.711Z,9.98
2022-12-14T19:29:08.809Z,9.80
2022-12-14T19:34:13.363Z,8.98
2022-12-14T19:39:17.264Z,9.18
2022-12-14T19:44:21.328Z,8.57
2022-12-14T19:49:24.253Z,7.63
2022-12-14T19:54:28.634Z,8.65
2022-12-14T19:59:32.426Z,13.45
2022-12-14T20:04:36.649Z,8.50
2022-12-14T20:09:40.673Z,8.10
2022-12-14T20:14:44.409Z,7.97
2022-12-14T20:19:53.056Z,8.43
2022-12-14T20:24:55.980Z,8.80
2022-12-14T20:29:58.995Z,9.20
2022-12-14T20:35:02.128Z,9.52
2022-12-14T20:40:07.972Z,9.00
2022-12-14T20:45:11.200Z,9.35
2022-12-14T20:50:14.120Z,8.43
2022-12-14T20:55:17.350Z,9.18
2022-12-14T21:00:20.486Z,8.38
2022-12-14T21:05:23.562Z,8.93
2022-12-14T21:10:26.479Z,8.85
2022-12-14T21:15:29.497Z,8.70
2022-12-14T21:20:32.604Z,8.90
2022-12-14T21:25:35.554Z,8.55
2022-12-14T21:30:38.454Z,7.40
2022-12-14T21:35:41.330Z,8.27
2022-12-14T21:41:11.893Z,8.48
2022-12-14T21:46:16.118Z,8.57
2022-12-14T21:51:19.871Z,9.55
2022-12-14T21:56:41.205Z,9.13
2022-12-14T22:01:44.664Z,8.38
2022-12-14T22:06:47.925Z,8.10
2022-12-14T22:11:51.295Z,7.57
2022-12-14T22:16:54.246Z,7.38
2022-12-14T22:21:57.511Z,6.15
2022-12-14T22:27:00.567Z,6.72
2022-12-14T22:32:03.612Z,6.60
2022-12-14T22:37:06.926Z,6.65
2022-12-14T22:42:10.780Z,6.47
2022-12-14T22:47:13.717Z,6.07
2022-12-14T22:52:21.248Z,6.35
2022-12-14T22:57:28.751Z,6.20
2022-12-14T23:02:32.104Z,6.72
2022-12-14T23:07:35.783Z,7.05
2022-12-14T23:12:57.132Z,6.38
2022-12-14T23:18:24.580Z,6.90
2022-12-14T23:23:45.755Z,6.28
2022-12-14T23:29:07.026Z,5.80
2022-12-14T23:34:28.160Z,5.63
2022-12-14T23:39:49.393Z,5.70
2022-12-14T23:45:10.644Z,5.43
2022-12-14T23:50:32.176Z,5.07
2022-12-14T23:55:53.389Z,4.95
